createdAt,value
2023-04-03T00:01:59.800Z,101650.97
2023-04-03T00:04:27.795Z,101641.13
2023-04-03T00:06:55.851Z,101652.97
2023-04-03T00:09:24.014Z,101650.13
2023-04-03T00:11:52.304Z,101656.38
2023-04-03T00:14:20.227Z,101655.25
2023-04-03T00:16:48.555Z,101654.69
2023-04-03T00:19:16.690Z,101662.94
2023-04-03T00:21:45.981Z,101666.66
2023-04-03T00:24:13.801Z,101661.53
2023-04-03T00:26:41.733Z,101664.34
2023-04-03T00:29:09.620Z,101668.94
2023-04-03T00:31:39.856Z,101665.63
2023-04-03T00:34:07.845Z,101666.03
2023-04-03T00:36:36.157Z,101664.31
2023-04-03T00:39:05.330Z,101662.59
2023-04-03T00:41:33.459Z,101662.75
2023-04-03T00:44:01.539Z,101667.28
2023-04-03T00:46:29.517Z,101662.88
2023-04-03T00:48:57.553Z,101662.88
2023-04-03T00:51:25.528Z,101666.44
2023-04-03T00:53:53.426Z,101671.56
2023-04-03T00:56:22.824Z,101672.47
2023-04-03T00:58:50.841Z,101671.84
2023-04-03T01:01:18.852Z,101662.88
2023-04-03T01:03:46.910Z,101668.16
2023-04-03T01:06:15.125Z,101674.84
2023-04-03T01:08:43.153Z,101677.81
2023-04-03T01:11:11.079Z,101678.22
2023-04-03T01:13:39.373Z,101679.91
2023-04-03T01:16:07.436Z,101679.34
2023-04-03T01:18:35.583Z,101684.03
2023-04-03T01:21:03.545Z,101675.03
2023-04-03T01:23:31.504Z,101672.34
2023-04-03T01:25:59.500Z,101672.59
2023-04-03T01:28:27.444Z,101666.44
2023-04-03T01:30:55.383Z,101681.00
2023-04-03T01:33:23.332Z,101671.88
2023-04-03T01:35:51.333Z,101677.44
2023-04-03T01:38:19.529Z,101684.69
2023-04-03T01:40:47.475Z,101684.56
2023-04-03T01:43:15.530Z,101685.81
2023-04-03T01:45:43.526Z,101689.72
2023-04-03T01:48:11.457Z,101685.16
2023-04-03T01:50:39.469Z,101687.41
2023-04-03T01:53:07.490Z,101690.25
2023-04-03T01:55:35.435Z,101696.53
2023-04-03T01:58:03.405Z,101696.53
2023-04-03T02:00:31.913Z,101704.66
2023-04-03T02:03:00.110Z,101704.56
2023-04-03T02:05:28.241Z,101708.38
2023-04-03T02:07:58.949Z,101713.38
2023-04-03T02:10:26.863Z,101711.69
2023-04-03T02:12:54.757Z,101720.94
2023-04-03T02:15:22.767Z,101715.63
2023-04-03T02:17:50.632Z,101718.34
2023-04-03T02:20:18.516Z,101725.34
2023-04-03T02:22:46.461Z,101724.31
2023-04-03T02:25:14.833Z,101723.19
2023-04-03T02:27:42.837Z,101720.09
2023-04-03T02:30:12.003Z,101716.91
2023-04-03T02:32:40.188Z,101726.00
2023-04-03T02:35:08.253Z,101730.84
2023-04-03T02:37:36.186Z,101730.84
2023-04-03T02:40:04.114Z,101733.66
2023-04-03T02:42:32.190Z,101740.22
2023-04-03T02:45:01.471Z,101738.38
2023-04-03T02:47:29.380Z,101739.97
2023-04-03T02:49:57.469Z,101739.97
2023-04-03T02:52:25.486Z,101733.81
2023-04-03T02:54:53.557Z,101746.38
2023-04-03T02:57:22.141Z,101744.50
2023-04-03T02:59:50.171Z,101748.81
2023-04-03T03:02:18.381Z,101744.66
2023-04-03T03:04:46.484Z,101746.38
2023-04-03T03:07:14.428Z,101749.63
2023-04-03T03:09:42.411Z,101744.94
2023-04-03T03:12:10.382Z,101746.38
2023-04-03T03:14:38.360Z,101744.66
2023-04-03T03:17:06.353Z,101754.91
2023-04-03T03:19:34.305Z,101754.03
2023-04-03T03:22:06.293Z,101755.03
2023-04-03T03:24:34.134Z,101762.44
2023-04-03T03:27:01.958Z,101762.16
2023-04-03T03:29:29.812Z,101760.34
2023-04-03T03:31:57.596Z,101760.44
2023-04-03T03:34:25.466Z,101761.84
2023-04-03T03:36:53.396Z,101769.22
2023-04-03T03:39:21.543Z,101775.38
2023-04-03T03:41:50.678Z,101772.69
2023-04-03T03:44:18.616Z,101768.63
2023-04-03T03:46:46.419Z,101772.06
2023-04-03T03:49:14.282Z,101765.94
2023-04-03T03:51:42.160Z,101770.47
2023-04-03T03:54:10.040Z,101780.19
2023-04-03T03:56:37.908Z,101783.91
2023-04-03T03:59:05.646Z,101781.19
2023-04-03T04:01:33.560Z,101784.75
2023-04-03T04:04:01.636Z,101783.91
2023-04-03T04:06:29.590Z,101785.88
2023-04-03T04:08:57.451Z,101790.44
2023-04-03T04:11:25.972Z,101794.84
2023-04-03T04:13:53.817Z,101790.44
2023-04-03T04:16:21.631Z,101790.81
2023-04-03T04:18:49.500Z,101790.78
2023-04-03T04:21:17.406Z,101794.63
2023-04-03T04:23:45.173Z,101793.78
2023-04-03T04:26:13.101Z,101795.03
2023-04-03T04:28:40.982Z,101796.22
2023-04-03T04:31:09.099Z,101801.84
2023-04-03T04:33:36.944Z,101803.59
2023-04-03T04:36:04.746Z,101794.47
2023-04-03T04:38:32.621Z,101800.16
2023-04-03T04:41:00.459Z,101802.84
2023-04-03T04:43:28.317Z,101811.25
2023-04-03T04:45:56.135Z,101806.81
2023-04-03T04:48:23.940Z,101806.81
2023-04-03T04:50:51.709Z,101813.97
2023-04-03T04:53:19.531Z,101819.22
2023-04-03T04:55:47.365Z,101817.78
2023-04-03T04:58:15.191Z,101815.19
2023-04-03T05:00:43.431Z,101818.03
2023-04-03T05:03:11.253Z,101825.66
2023-04-03T05:05:39.503Z,101827.03
2023-04-03T05:08:09.337Z,101826.28
2023-04-03T05:10:37.157Z,101829.59
2023-04-03T05:13:05.181Z,101826.75
2023-04-03T05:15:32.934Z,101831.97
2023-04-03T05:18:00.754Z,101835.03
2023-04-03T05:20:28.615Z,101830.97
2023-04-03T05:22:56.461Z,101832.19
2023-04-03T05:25:24.250Z,101837.22
2023-04-03T05:27:54.955Z,101832.69
2023-04-03T05:30:22.787Z,101837.38
2023-04-03T05:32:50.677Z,101843.53
2023-04-03T05:35:18.480Z,101840.69
2023-04-03T05:37:46.582Z,101840.84
2023-04-03T05:40:15.020Z,101845.50
2023-04-03T05:42:43.689Z,101846.25
2023-04-03T05:45:11.460Z,101854.22
2023-04-03T05:47:39.301Z,101855.22
2023-04-03T05:50:07.191Z,101855.22
2023-04-03T05:52:34.980Z,101852.38
2023-04-03T05:55:02.766Z,101858.69
2023-04-03T05:57:30.646Z,101862.75
2023-04-03T05:59:58.417Z,101866.19
2023-04-03T06:02:27.160Z,101864.44
2023-04-03T06:04:55.139Z,101870.34
2023-04-03T06:07:23.711Z,101872.22
2023-04-03T06:09:52.179Z,101875.41
2023-04-03T06:12:20.022Z,101877.50
2023-04-03T06:14:47.850Z,101878.63
2023-04-03T06:17:16.375Z,101875.41
2023-04-03T06:19:44.271Z,101886.13
2023-04-03T06:22:12.682Z,101883.28
2023-04-03T06:24:40.504Z,101876.47
2023-04-03T06:27:08.376Z,101887.22
2023-04-03T06:29:36.218Z,101879.69
2023-04-03T06:32:04.010Z,101878.72
2023-04-03T06:34:32.501Z,101879.81
2023-04-03T06:37:00.397Z,101879.69
2023-04-03T06:39:28.392Z,101895.81
2023-04-03T06:41:56.312Z,101891.38
2023-04-03T06:44:24.059Z,101891.53
2023-04-03T06:46:52.953Z,101894.97
2023-04-03T06:49:20.736Z,101896.94
2023-04-03T06:51:48.676Z,101898.53
2023-04-03T06:54:16.526Z,101905.28
2023-04-03T06:56:44.403Z,101898.28
2023-04-03T06:59:12.183Z,101900.00
2023-04-03T07:01:40.056Z,101901.09
2023-04-03T07:04:08.678Z,101906.53
2023-04-03T07:06:36.668Z,101913.44
2023-04-03T07:09:04.760Z,101902.59
2023-04-03T07:11:32.612Z,101899.50
2023-04-03T07:14:00.605Z,101904.22
2023-04-03T07:16:28.421Z,101904.34
2023-04-03T07:18:56.279Z,101913.56
2023-04-03T07:21:24.557Z,101913.69
2023-04-03T07:23:52.324Z,101911.97
2023-04-03T07:26:21.772Z,101919.50
2023-04-03T07:28:49.781Z,101924.78
2023-04-03T07:31:17.912Z,101917.91
2023-04-03T07:33:46.199Z,101931.69
2023-04-03T07:36:14.093Z,101918.28
2023-04-03T07:38:42.308Z,101926.53
2023-04-03T07:41:10.131Z,101927.53
2023-04-03T07:43:37.914Z,101928.38
2023-04-03T07:46:05.781Z,101931.44
2023-04-03T07:48:33.546Z,101925.16
2023-04-03T07:51:01.322Z,101924.91
2023-04-03T07:53:29.161Z,101926.91
2023-04-03T07:55:58.198Z,101927.25
2023-04-03T07:58:26.781Z,101934.91
2023-04-03T08:00:54.574Z,101934.03
2023-04-03T08:03:22.506Z,101931.94
2023-04-03T08:05:50.500Z,101922.09
2023-04-03T08:08:20.056Z,101922.34
2023-04-03T08:10:49.189Z,101921.25
2023-04-03T08:13:16.960Z,101921.84
2023-04-03T08:15:44.781Z,101927.63
2023-04-03T08:18:12.567Z,101918.16
2023-04-03T08:20:40.966Z,101930.22
2023-04-03T08:23:08.757Z,101929.22
2023-04-03T08:25:37.435Z,101923.59
2023-04-03T08:28:05.375Z,101922.59
2023-04-03T08:30:33.163Z,101922.69
2023-04-03T08:33:01.103Z,101925.56
2023-04-03T08:35:28.971Z,101933.06
2023-04-03T08:37:57.479Z,101933.31
2023-04-03T08:40:25.656Z,101930.22
2023-04-03T08:42:53.466Z,101934.50
2023-04-03T08:45:21.441Z,101927.38
2023-04-03T08:47:49.275Z,101930.34
2023-04-03T08:50:17.060Z,101932.22
2023-04-03T08:52:45.031Z,101933.31
2023-04-03T08:55:12.854Z,101936.13
2023-04-03T08:57:40.713Z,101939.44
2023-04-03T09:00:08.905Z,101937.63
2023-04-03T09:02:36.712Z,101937.13
2023-04-03T09:05:04.555Z,101939.97
2023-04-03T09:07:32.632Z,101937.25
2023-04-03T09:10:02.214Z,101938.09
2023-04-03T09:12:31.073Z,101932.94
2023-04-03T09:14:59.053Z,101938.00
2023-04-03T09:17:28.109Z,101941.91
2023-04-03T09:19:55.914Z,101939.09
2023-04-03T09:22:24.312Z,101941.44
2023-04-03T09:24:52.335Z,101942.28
2023-04-03T09:27:20.308Z,101936.00
2023-04-03T09:29:48.325Z,101952.88
2023-04-03T09:32:16.340Z,101943.88
2023-04-03T09:34:44.158Z,101936.13
2023-04-03T09:37:11.986Z,101932.66
2023-04-03T09:39:40.028Z,101939.81
2023-04-03T09:42:08.330Z,101938.09
2023-04-03T09:44:36.350Z,101932.56
2023-04-03T09:47:04.152Z,101936.84
2023-04-03T09:49:32.001Z,101935.50
2023-04-03T09:51:59.790Z,101921.09
2023-04-03T09:54:28.418Z,101928.22
2023-04-03T09:56:56.752Z,101928.94
2023-04-03T09:59:24.731Z,101932.19
2023-04-03T10:01:52.562Z,101931.44
2023-04-03T10:04:20.728Z,101926.53
2023-04-03T10:06:48.788Z,101927.72
2023-04-03T10:09:16.688Z,101923.03
2023-04-03T10:11:44.479Z,101926.28
2023-04-03T10:14:12.274Z,101923.66
2023-04-03T10:16:40.428Z,101926.28
2023-04-03T10:19:09.197Z,101914.56
2023-04-03T10:21:37.267Z,101909.75
2023-04-03T10:24:05.095Z,101906.44
2023-04-03T10:26:32.907Z,101910.53
2023-04-03T10:29:00.889Z,101901.13
2023-04-03T10:31:28.729Z,101903.84
2023-04-03T10:33:56.698Z,101895.72
2023-04-03T10:36:24.528Z,101900.28
2023-04-03T10:38:53.807Z,101899.16
2023-04-03T10:41:21.752Z,101888.53
2023-04-03T10:43:49.594Z,101892.59
2023-04-03T10:46:18.014Z,101891.84
2023-04-03T10:48:45.884Z,101897.16
2023-04-03T10:51:13.679Z,101893.84
2023-04-03T10:53:41.737Z,101896.69
2023-04-03T10:56:09.746Z,101900.63
2023-04-03T10:58:37.587Z,101895.94
2023-04-03T11:01:05.500Z,101896.69
2023-04-03T11:03:33.991Z,101894.44
2023-04-03T11:06:01.927Z,101889.03
2023-04-03T11:08:29.797Z,101899.03
2023-04-03T11:10:57.619Z,101894.19
2023-04-03T11:13:26.353Z,101879.78
2023-04-03T11:15:54.327Z,101879.41
2023-04-03T11:18:22.160Z,101882.22
2023-04-03T11:20:50.005Z,101877.81
2023-04-03T11:23:17.822Z,101877.97
2023-04-03T11:25:46.367Z,101877.09
2023-04-03T11:28:14.176Z,101874.13
2023-04-03T11:30:41.992Z,101873.13
2023-04-03T11:33:09.847Z,101865.75
2023-04-03T11:35:38.067Z,101869.03
2023-04-03T11:38:06.766Z,101863.41
2023-04-03T11:40:34.594Z,101861.91
2023-04-03T11:43:02.383Z,101861.66
2023-04-03T11:45:30.966Z,101872.75
2023-04-03T11:47:59.643Z,101871.66
2023-04-03T11:50:28.856Z,101867.09
2023-04-03T11:52:56.710Z,101860.28
2023-04-03T11:55:24.557Z,101863.72
2023-04-03T11:57:52.344Z,101857.19
2023-04-03T12:00:20.156Z,101852.88
2023-04-03T12:02:54.282Z,101860.91
2023-04-03T12:05:23.095Z,101853.03
2023-04-03T12:07:50.955Z,101858.44
2023-04-03T12:10:30.955Z,101856.19
2023-04-03T12:13:00.261Z,101845.34
2023-04-03T12:15:28.098Z,101843.63
2023-04-03T12:17:56.315Z,101842.38
2023-04-03T12:20:24.149Z,101844.09
2023-04-03T12:22:51.988Z,101849.53
2023-04-03T12:25:19.800Z,101846.81
2023-04-03T12:27:48.984Z,101840.66
2023-04-03T12:30:16.894Z,101836.09
2023-04-03T12:32:44.805Z,101830.53
2023-04-03T12:35:13.172Z,101833.84
2023-04-03T12:37:41.384Z,101831.28
2023-04-03T12:40:09.190Z,101829.41
2023-04-03T12:42:37.043Z,101835.13
2023-04-03T12:45:04.888Z,101836.56
2023-04-03T12:47:34.234Z,101829.53
2023-04-03T12:50:02.748Z,101826.81
2023-04-03T12:52:30.606Z,101826.13
2023-04-03T12:54:58.685Z,101832.13
2023-04-03T12:57:26.585Z,101823.25
2023-04-03T12:59:54.411Z,101835.84
2023-04-03T13:02:22.330Z,101819.44
2023-04-03T13:04:50.082Z,101826.31
2023-04-03T13:07:17.914Z,101825.59
2023-04-03T13:09:45.694Z,101826.59
2023-04-03T13:12:13.588Z,101834.47
2023-04-03T13:14:42.002Z,101817.44
2023-04-03T13:17:09.859Z,101815.31
2023-04-03T13:19:37.676Z,101816.22
2023-04-03T13:22:05.488Z,101828.03
2023-04-03T13:24:33.326Z,101823.47
2023-04-03T13:27:01.234Z,101822.34
2023-04-03T13:29:31.516Z,101820.38
2023-04-03T13:31:59.912Z,101817.66
2023-04-03T13:34:28.847Z,101815.31
2023-04-03T13:36:56.620Z,101813.75
2023-04-03T13:39:24.516Z,101819.50
2023-04-03T13:41:52.314Z,101812.69
2023-04-03T13:44:20.081Z,101817.19
2023-04-03T13:46:47.862Z,101815.44
2023-04-03T13:49:15.683Z,101808.84
2023-04-03T13:51:43.783Z,101800.50
2023-04-03T13:54:11.649Z,101812.56
2023-04-03T13:56:39.542Z,101806.78
2023-04-03T13:59:07.331Z,101812.06
2023-04-03T14:01:35.150Z,101810.41
2023-04-03T14:04:03.928Z,101808.09
2023-04-03T14:06:31.740Z,101807.66
2023-04-03T14:08:59.611Z,101812.09
2023-04-03T14:11:28.364Z,101810.97
2023-04-03T14:13:56.196Z,101804.53
2023-04-03T14:16:24.280Z,101802.41
2023-04-03T14:18:52.348Z,101802.53
2023-04-03T14:21:20.251Z,101797.81
2023-04-03T14:23:48.087Z,101803.66
2023-04-03T14:26:17.456Z,101800.66
2023-04-03T14:28:45.432Z,101803.81
2023-04-03T14:31:13.350Z,101802.41
2023-04-03T14:33:41.211Z,101803.25
2023-04-03T14:36:09.014Z,101804.25
2023-04-03T14:38:36.803Z,101798.53
2023-04-03T14:41:13.989Z,101796.66
2023-04-03T14:43:44.165Z,101798.25
2023-04-03T14:46:12.065Z,101795.09
2023-04-03T14:48:39.896Z,101796.25
2023-04-03T14:51:07.827Z,101792.22
2023-04-03T14:53:39.099Z,101796.66
2023-04-03T14:56:07.267Z,101796.47
2023-04-03T14:58:37.379Z,101798.56
2023-04-03T15:01:05.378Z,101798.03
2023-04-03T15:03:33.799Z,101797.47
2023-04-03T15:06:01.819Z,101793.00
2023-04-03T15:08:30.367Z,101798.22
2023-04-03T15:10:58.345Z,101794.53
2023-04-03T15:13:26.300Z,101800.66
2023-04-03T15:15:54.214Z,101793.78
2023-04-03T15:18:22.167Z,101793.22
2023-04-03T15:20:49.966Z,101797.91
2023-04-03T15:23:17.901Z,101799.41
2023-04-03T15:25:45.788Z,101796.84
2023-04-03T15:28:13.561Z,101794.81
2023-04-03T15:30:43.783Z,101788.22
2023-04-03T15:33:11.915Z,101805.66
2023-04-03T15:35:40.674Z,101799.78
2023-04-03T15:38:11.193Z,101800.19
2023-04-03T15:40:39.260Z,101791.72
2023-04-03T15:43:09.582Z,101792.00
2023-04-03T15:45:38.078Z,101794.84
2023-04-03T15:48:06.393Z,101793.31
2023-04-03T15:50:37.111Z,101786.81
2023-04-03T15:53:05.862Z,101784.88
2023-04-03T15:55:33.690Z,101794.09
2023-04-03T15:58:02.445Z,101779.75
2023-04-03T16:00:30.556Z,101791.22
2023-04-03T16:02:58.502Z,101788.63
2023-04-03T16:05:26.685Z,101783.50
2023-04-03T16:07:54.937Z,101788.94
2023-04-03T16:10:26.017Z,101786.63
2023-04-03T16:12:53.950Z,101792.94
2023-04-03T16:15:21.835Z,101787.78
2023-04-03T16:17:52.463Z,101783.47
2023-04-03T16:20:22.603Z,101793.81
2023-04-03T16:22:50.622Z,101786.06
2023-04-03T16:25:21.734Z,101790.22
2023-04-03T16:27:49.752Z,101788.66
2023-04-03T16:30:18.215Z,101793.53
2023-04-03T16:32:46.117Z,101787.38
2023-04-03T16:35:15.421Z,101787.78
2023-04-03T16:37:43.299Z,101787.47
2023-04-03T16:40:11.189Z,101783.47
2023-04-03T16:42:39.248Z,101796.06
2023-04-03T16:45:07.866Z,101787.34
2023-04-03T16:47:36.062Z,101787.47
2023-04-03T16:50:03.973Z,101792.75
2023-04-03T16:52:32.232Z,101787.63
2023-04-03T16:55:00.046Z,101797.09
2023-04-03T16:57:28.157Z,101792.22
2023-04-03T16:59:56.719Z,101786.63
2023-04-03T17:02:26.281Z,101786.75
2023-04-03T17:04:54.357Z,101788.72
2023-04-03T17:07:22.257Z,101793.41
2023-04-03T17:09:54.499Z,101785.97
2023-04-03T17:12:22.303Z,101786.09
2023-04-03T17:14:50.221Z,101788.94
2023-04-03T17:17:18.226Z,101784.94
2023-04-03T17:19:46.114Z,101787.91
2023-04-03T17:22:14.082Z,101792.47
2023-04-03T17:24:41.910Z,101793.44
2023-04-03T17:27:09.786Z,101783.47
2023-04-03T17:29:37.845Z,101786.81
2023-04-03T17:32:05.775Z,101793.34
2023-04-03T17:34:34.271Z,101789.34
2023-04-03T17:37:02.574Z,101795.38
2023-04-03T17:39:30.372Z,101792.50
2023-04-03T17:41:58.574Z,101792.22
2023-04-03T17:44:27.311Z,101797.09
2023-04-03T17:46:55.279Z,101789.34
2023-04-03T17:49:23.121Z,101791.31
2023-04-03T17:51:51.362Z,101797.50
2023-04-03T17:54:19.223Z,101793.19
2023-04-03T17:56:48.368Z,101797.78
2023-04-03T17:59:16.575Z,101799.06
2023-04-03T18:01:46.953Z,101795.78
2023-04-03T18:04:14.904Z,101789.63
2023-04-03T18:06:43.239Z,101798.41
2023-04-03T18:09:11.071Z,101798.19
2023-04-03T18:11:39.311Z,101795.94
2023-04-03T18:14:07.679Z,101794.06
2023-04-03T18:16:38.300Z,101797.66
2023-04-03T18:19:22.060Z,101803.69
2023-04-03T18:21:51.013Z,101798.50
2023-04-03T18:24:19.020Z,101805.53
2023-04-03T18:26:47.223Z,101796.94
2023-04-03T18:29:16.385Z,101799.22
2023-04-03T18:31:44.313Z,101802.38
2023-04-03T18:34:13.609Z,101803.22
2023-04-03T18:36:41.822Z,101804.06
2023-04-03T18:39:10.398Z,101811.53
2023-04-03T18:41:38.195Z,101810.69
2023-04-03T18:44:06.219Z,101807.13
2023-04-03T18:49:05.855Z,101808.50
2023-04-03T18:51:33.728Z,101814.78
2023-04-03T18:54:03.391Z,101821.22
2023-04-03T18:56:31.980Z,101811.84
2023-04-03T18:58:59.928Z,101812.09
2023-04-03T19:01:27.937Z,101806.81
2023-04-03T19:03:55.986Z,101801.81
2023-04-03T19:06:24.327Z,101802.09
2023-04-03T19:08:52.306Z,101804.91
2023-04-03T19:11:20.090Z,101805.06
2023-04-03T19:16:20.858Z,101802.03
2023-04-03T19:18:49.076Z,101801.31
2023-04-03T19:21:16.955Z,101794.97
2023-04-03T19:23:44.940Z,101799.44
2023-04-03T19:26:12.967Z,101804.84
2023-04-03T19:28:41.764Z,101802.28
2023-04-03T19:31:09.934Z,101799.44
2023-04-03T19:33:37.821Z,101801.41
2023-04-03T19:36:05.665Z,101801.53
2023-04-03T19:38:33.438Z,101800.69
2023-04-03T19:41:01.312Z,101800.69
2023-04-03T19:43:29.173Z,101804.13
2023-04-03T19:45:57.215Z,101800.69
2023-04-03T19:48:24.972Z,101804.97
2023-04-03T19:50:52.941Z,101800.38
2023-04-03T19:53:22.342Z,101802.09
2023-04-03T19:55:50.258Z,101808.25
2023-04-03T19:58:18.040Z,101805.53
2023-04-03T20:00:45.845Z,101799.53
2023-04-03T20:03:13.802Z,101806.09
2023-04-03T20:05:41.639Z,101803.38
2023-04-03T20:08:09.455Z,101811.38
2023-04-03T20:10:40.511Z,101805.09
2023-04-03T20:13:10.787Z,101808.19
2023-04-03T20:15:40.951Z,101803.50
2023-04-03T20:18:08.885Z,101805.09
2023-04-03T20:20:41.851Z,101803.78
2023-04-03T20:23:10.823Z,101799.75
2023-04-03T20:25:50.712Z,101802.47
2023-04-03T20:28:25.716Z,101796.59
2023-04-03T20:30:55.118Z,101794.31
2023-04-03T20:33:23.529Z,101793.19
2023-04-03T20:35:51.543Z,101788.16
2023-04-03T20:38:19.310Z,101787.16
2023-04-03T20:40:47.144Z,101780.03
2023-04-03T20:43:15.100Z,101789.75
2023-04-03T20:45:42.900Z,101784.84
2023-04-03T20:48:11.027Z,101778.56
2023-04-03T20:50:39.044Z,101784.84
2023-04-03T20:53:07.916Z,101777.69
2023-04-03T20:55:35.824Z,101778.56
2023-04-03T20:58:03.741Z,101778.56
2023-04-03T21:00:32.255Z,101778.56
2023-04-03T21:03:01.486Z,101772.28
2023-04-03T21:05:30.903Z,101776.56
2023-04-03T21:07:58.785Z,101781.16
2023-04-03T21:10:28.454Z,101783.13
2023-04-03T21:12:56.921Z,101784.13
2023-04-03T21:15:24.793Z,101775.25
2023-04-03T21:17:52.751Z,101772.41
2023-04-03T21:20:20.654Z,101775.09
2023-04-03T21:22:49.915Z,101775.66
2023-04-03T21:25:17.722Z,101781.25
2023-04-03T21:27:45.583Z,101778.38
2023-04-03T21:30:13.369Z,101783.81
2023-04-03T21:32:41.299Z,101774.81
2023-04-03T21:35:09.538Z,101779.22
2023-04-03T21:37:37.992Z,101777.53
2023-04-03T21:40:05.828Z,101774.81
2023-04-03T21:42:33.650Z,101778.78
2023-04-03T21:45:01.376Z,101773.34
2023-04-03T21:47:29.287Z,101783.22
2023-04-03T21:49:57.268Z,101771.63
2023-04-03T21:52:25.087Z,101771.63
2023-04-03T21:54:53.020Z,101768.91
2023-04-03T21:57:22.348Z,101772.22
2023-04-03T21:59:50.549Z,101768.53
2023-04-03T22:02:18.442Z,101766.78
2023-04-03T22:04:47.416Z,101761.50
2023-04-03T22:07:15.207Z,101762.47
2023-04-03T22:09:43.030Z,101762.63
2023-04-03T22:12:11.913Z,101762.63
2023-04-03T22:14:40.017Z,101765.19
2023-04-03T22:17:08.062Z,101759.06
2023-04-03T22:19:35.830Z,101751.91
2023-04-03T22:22:04.218Z,101748.47
2023-04-03T22:24:32.211Z,101755.91
2023-04-03T22:27:00.003Z,101752.41
2023-04-03T22:29:28.053Z,101748.97
2023-04-03T22:31:56.049Z,101737.38
2023-04-03T22:34:24.611Z,101744.69
2023-04-03T22:36:53.656Z,101742.81
2023-04-03T22:39:22.308Z,101743.09
2023-04-03T22:41:50.468Z,101736.41
2023-04-03T22:44:18.402Z,101739.13
2023-04-03T22:46:46.379Z,101737.25
2023-04-03T22:49:14.123Z,101732.97
2023-04-03T22:51:42.044Z,101733.25
2023-04-03T22:54:10.090Z,101732.34
2023-04-03T22:56:38.015Z,101735.97
2023-04-03T22:59:05.899Z,101738.91
2023-04-03T23:01:33.749Z,101736.19
2023-04-03T23:04:01.691Z,101725.22
2023-04-03T23:06:29.548Z,101733.47
2023-04-03T23:08:57.628Z,101728.66
2023-04-03T23:11:25.478Z,101730.66
2023-04-03T23:13:53.274Z,101728.06
2023-04-03T23:16:21.062Z,101730.78
2023-04-03T23:18:50.055Z,101736.34
2023-04-03T23:21:17.853Z,101736.63
2023-04-03T23:23:45.808Z,101737.19
2023-04-03T23:26:13.585Z,101736.94
2023-04-03T23:28:41.979Z,101736.94
2023-04-03T23:31:10.427Z,101738.59
2023-04-03T23:33:38.307Z,101741.19
2023-04-03T23:36:06.693Z,101734.41
2023-04-03T23:38:34.845Z,101740.97
2023-04-03T23:41:02.680Z,101738.53
2023-04-03T23:43:31.308Z,101745.69
2023-04-03T23:45:59.660Z,101744.69
2023-04-03T23:48:27.487Z,101741.84
2023-04-03T23:50:55.284Z,101736.56
2023-04-03T23:53:23.324Z,101743.69
2023-04-03T23:55:51.162Z,101739.16
2023-04-03T23:58:18.963Z,101741.84
